Time;durP1;ratioP1;P1;durP2;ratioP2;P2;SDS_P1;SDS_P2;PMS_P1;PMS_P2;Temp;Humidity;BMP_temperature;BMP_pressure;BME280_temperature;BME280_humidity;BME280_pressure;Samples;Min_cycle;Max_cycle;Signal;HPM_P1;HPM_P2
2023/07/18 00:00:38;;;;;;;9.73;4.35;;;16.40;99.90;;;;;;5031756;28;20482;-73
2023/07/18 00:03:05;;;;;;;11.35;4.65;;;16.40;99.90;;;;;;5031080;28;20083;-73
2023/07/18 00:05:36;;;;;;;13.52;4.78;;;16.40;99.90;;;;;;5031763;28;20067;-76
2023/07/18 00:08:01;;;;;;;13.00;5.15;;;16.40;99.90;;;;;;5033057;28;20093;-73
2023/07/18 00:10:27;;;;;;;12.73;4.55;;;16.30;99.90;;;;;;5015390;28;20081;-73
2023/07/18 00:12:54;;;;;;;12.05;4.88;;;16.30;99.90;;;;;;5031015;28;20054;-73
2023/07/18 00:15:20;;;;;;;11.75;4.70;;;16.30;99.90;;;;;;5015408;28;20057;-73
2023/07/18 00:17:45;;;;;;;12.77;4.78;;;16.20;99.90;;;;;;5031693;28;20053;-73
2023/07/18 00:20:17;;;;;;;13.57;4.50;;;16.20;99.90;;;;;;5015248;28;20491;-73
2023/07/18 00:22:52;;;;;;;15.32;5.22;;;16.20;99.90;;;;;;5031310;28;20049;-73
2023/07/18 00:25:19;;;;;;;11.63;4.80;;;16.10;99.90;;;;;;5031544;28;20071;-74
2023/07/18 00:27:49;;;;;;;11.70;4.85;;;16.20;99.90;;;;;;5031358;28;20390;-73
2023/07/18 00:30:17;;;;;;;12.00;4.28;;;16.10;99.90;;;;;;5015136;28;20089;-72
2023/07/18 00:32:44;;;;;;;10.68;4.55;;;16.10;99.90;;;;;;5014610;28;20081;-72
2023/07/18 00:35:11;;;;;;;13.98;4.63;;;16.10;99.90;;;;;;5031335;28;20051;-73
2023/07/18 00:37:42;;;;;;;14.85;5.15;;;16.00;99.90;;;;;;5030875;28;20053;-73
2023/07/18 00:40:10;;;;;;;13.00;4.90;;;16.00;99.90;;;;;;5031635;28;20085;-72
2023/07/18 00:42:43;;;;;;;11.77;4.82;;;16.00;99.90;;;;;;5030746;28;20499;-75
2023/07/18 00:45:09;;;;;;;13.32;4.88;;;16.00;99.90;;;;;;5031094;28;20052;-73
2023/07/18 00:47:40;;;;;;;15.18;4.82;;;16.00;99.90;;;;;;5014514;28;20045;-75
2023/07/18 00:50:08;;;;;;;13.63;4.72;;;16.00;99.90;;;;;;5031437;28;20041;-72
2023/07/18 00:52:40;;;;;;;16.10;4.57;;;16.00;99.90;;;;;;5030859;28;20057;-73
2023/07/18 00:55:09;;;;;;;13.35;4.80;;;16.00;99.90;;;;;;5014700;28;20482;-73
2023/07/18 00:57:37;;;;;;;15.35;5.43;;;16.00;99.90;;;;;;5014800;28;20048;-73
2023/07/18 01:00:09;;;;;;;15.35;4.65;;;16.00;99.90;;;;;;5031184;28;20057;-73
2023/07/18 01:02:36;;;;;;;15.57;4.60;;;15.90;99.90;;;;;;5031322;28;20048;-73
2023/07/18 01:05:02;;;;;;;11.40;4.35;;;15.90;99.90;;;;;;5032049;28;20057;-73
2023/07/18 01:07:29;;;;;;;14.63;5.47;;;15.80;99.90;;;;;;5030812;28;20561;-73
2023/07/18 01:10:24;;;;;;;11.50;4.63;;;15.80;99.90;;;;;;5030619;28;20049;-73
2023/07/18 01:12:57;;;;;;;13.63;4.65;;;15.80;99.90;;;;;;5030280;28;20072;-73
2023/07/18 01:15:24;;;;;;;11.75;4.82;;;15.70;99.90;;;;;;5031176;28;20132;-73
2023/07/18 01:17:50;;;;;;;14.05;5.10;;;15.70;99.90;;;;;;5030687;28;20053;-73
2023/07/18 01:20:18;;;;;;;11.25;4.57;;;15.70;99.90;;;;;;5014467;28;20045;-73
2023/07/18 01:22:49;;;;;;;14.38;5.18;;;15.60;99.90;;;;;;5013685;28;20119;-73
2023/07/18 01:25:19;;;;;;;25.67;5.35;;;15.60;99.90;;;;;;5015270;28;20142;-73
2023/07/18 01:27:53;;;;;;;14.00;4.85;;;15.60;99.90;;;;;;5030682;28;20054;-73
2023/07/18 01:30:21;;;;;;;13.70;4.88;;;15.60;99.90;;;;;;5030570;28;20044;-73
2023/07/18 01:32:48;;;;;;;16.67;4.75;;;15.60;99.90;;;;;;5030639;28;20041;-72
2023/07/18 01:35:15;;;;;;;13.00;4.93;;;15.60;99.90;;;;;;5030945;28;20063;-72
2023/07/18 01:37:44;;;;;;;11.63;4.70;;;15.60;99.90;;;;;;5031100;28;20048;-72
2023/07/18 01:40:15;;;;;;;13.25;4.90;;;15.60;99.90;;;;;;5031041;28;20049;-73
2023/07/18 01:42:44;;;;;;;14.35;4.90;;;15.60;99.90;;;;;;5030764;28;20061;-73
2023/07/18 01:45:10;;;;;;;13.10;4.85;;;15.50;99.90;;;;;;5030966;28;20100;-73
2023/07/18 01:47:38;;;;;;;11.75;4.93;;;15.60;99.90;;;;;;5014326;28;20081;-72
2023/07/18 01:50:05;;;;;;;11.45;4.93;;;15.50;99.90;;;;;;5030307;28;20124;-73
2023/07/18 01:52:35;;;;;;;15.77;5.40;;;15.40;99.90;;;;;;5030682;28;20053;-72
2023/07/18 01:55:03;;;;;;;14.63;5.68;;;15.50;99.90;;;;;;5014953;28;20050;-73
2023/07/18 01:57:30;;;;;;;13.38;5.03;;;15.40;99.90;;;;;;5023973;28;20101;-73
2023/07/18 01:59:59;;;;;;;9.90;4.40;;;15.40;99.90;;;;;;5035675;28;20042;-73
2023/07/18 02:02:25;;;;;;;14.50;4.80;;;15.40;99.90;;;;;;5032634;28;20375;-73
2023/07/18 02:04:50;;;;;;;14.55;5.40;;;15.40;99.90;;;;;;5030561;28;20041;-73
2023/07/18 02:07:16;;;;;;;14.85;5.50;;;15.40;99.90;;;;;;5014127;28;20068;-73
2023/07/18 02:09:42;;;;;;;15.00;6.10;;;15.30;99.90;;;;;;5014303;28;20050;-72
2023/07/18 02:12:08;;;;;;;14.02;5.22;;;15.30;99.90;;;;;;5029887;28;20038;-72
2023/07/18 02:14:36;;;;;;;10.23;5.10;;;15.40;99.90;;;;;;5030569;28;20046;-73
2023/07/18 02:17:03;;;;;;;13.27;4.75;;;15.40;99.90;;;;;;5029937;28;20445;-73
2023/07/18 02:19:29;;;;;;;18.23;5.18;;;15.30;99.90;;;;;;5030598;28;20384;-72
2023/07/18 02:21:54;;;;;;;15.38;5.22;;;15.30;99.90;;;;;;5013407;28;20053;-73
2023/07/18 02:24:20;;;;;;;16.77;5.53;;;15.30;99.90;;;;;;5030352;28;20056;-73
2023/07/18 02:26:46;;;;;;;9.13;4.63;;;15.20;99.90;;;;;;5013932;28;20123;-72
2023/07/18 02:29:13;;;;;;;17.60;5.35;;;15.30;99.90;;;;;;5030067;28;20115;-72
2023/07/18 02:31:39;;;;;;;14.77;5.43;;;15.30;99.90;;;;;;5030368;28;20115;-72
2023/07/18 02:34:05;;;;;;;13.70;5.25;;;15.20;99.90;;;;;;5030630;28;20053;-72
2023/07/18 02:36:32;;;;;;;14.25;5.47;;;15.20;99.90;;;;;;5000473;28;20132;-73
2023/07/18 02:38:59;;;;;;;15.10;5.32;;;15.30;99.90;;;;;;5033393;28;20081;-72
2023/07/18 02:41:24;;;;;;;13.57;5.68;;;15.20;99.90;;;;;;5017455;28;20061;-73
2023/07/18 02:43:50;;;;;;;19.52;5.63;;;15.20;99.90;;;;;;5017396;28;20050;-72
2023/07/18 02:46:16;;;;;;;16.33;5.45;;;15.20;99.90;;;;;;5032721;28;20042;-73
2023/07/18 02:48:42;;;;;;;13.15;5.72;;;15.20;99.90;;;;;;5033308;28;20056;-73
2023/07/18 02:51:08;;;;;;;15.57;5.20;;;15.20;99.90;;;;;;5016518;28;20041;-72
2023/07/18 02:53:34;;;;;;;16.45;5.28;;;15.20;99.90;;;;;;5017099;28;20048;-72
2023/07/18 02:55:59;;;;;;;13.23;5.80;;;15.20;99.90;;;;;;5016190;28;20049;-73
2023/07/18 02:58:25;;;;;;;16.40;5.47;;;15.10;99.90;;;;;;5017035;28;20134;-72
2023/07/18 03:00:51;;;;;;;15.13;5.35;;;15.10;99.90;;;;;;5033305;28;20045;-73
2023/07/18 03:03:17;;;;;;;18.55;5.38;;;15.10;99.90;;;;;;5016360;28;20091;-72
2023/07/18 03:05:43;;;;;;;15.00;5.75;;;15.10;99.90;;;;;;5033256;28;20486;-72
2023/07/18 03:08:08;;;;;;;16.60;5.68;;;15.10;99.90;;;;;;5032991;28;20049;-72
2023/07/18 03:10:36;;;;;;;14.35;5.70;;;15.10;99.90;;;;;;5016647;28;20103;-72
2023/07/18 03:13:02;;;;;;;14.30;5.82;;;15.10;99.90;;;;;;5032422;28;20088;-73
2023/07/18 03:15:28;;;;;;;15.10;5.75;;;15.00;99.90;;;;;;5016688;28;20053;-72
2023/07/18 03:17:53;;;;;;;13.75;5.75;;;15.00;99.90;;;;;;5032967;28;20045;-73
2023/07/18 03:20:19;;;;;;;15.18;5.53;;;15.00;99.90;;;;;;5032539;28;20067;-72
2023/07/18 03:22:47;;;;;;;12.40;6.05;;;15.00;99.90;;;;;;5016321;28;20049;-72
2023/07/18 03:25:13;;;;;;;16.35;6.13;;;15.00;99.90;;;;;;5032502;28;20049;-72
2023/07/18 03:27:39;;;;;;;20.35;6.20;;;15.00;99.90;;;;;;5032163;28;20475;-72
2023/07/18 03:30:06;;;;;;;11.65;5.72;;;15.00;99.90;;;;;;5015798;28;20103;-72
2023/07/18 03:32:33;;;;;;;13.07;5.85;;;15.00;99.90;;;;;;5031966;28;20080;-72
2023/07/18 03:34:59;;;;;;;13.90;5.38;;;15.00;99.90;;;;;;5033233;28;20136;-76
2023/07/18 03:37:28;;;;;;;15.10;6.05;;;14.90;99.90;;;;;;5016612;28;20132;-73
2023/07/18 03:39:54;;;;;;;13.27;5.85;;;14.90;99.90;;;;;;5016761;28;20399;-74
2023/07/18 03:42:21;;;;;;;18.38;5.97;;;15.00;99.90;;;;;;5016196;28;20056;-72
2023/07/18 03:44:47;;;;;;;17.38;6.20;;;14.90;99.90;;;;;;5032833;28;20349;-72
2023/07/18 03:47:12;;;;;;;14.13;5.57;;;14.90;99.90;;;;;;5016573;28;20146;-72
2023/07/18 03:49:38;;;;;;;17.15;5.80;;;14.90;99.90;;;;;;5033456;28;20187;-72
2023/07/18 03:52:05;;;;;;;16.77;6.40;;;14.90;99.90;;;;;;5032619;28;20134;-73
2023/07/18 03:54:33;;;;;;;13.77;5.63;;;14.90;99.90;;;;;;5033179;28;20049;-72
2023/07/18 03:56:59;;;;;;;17.13;5.38;;;14.90;99.90;;;;;;5032908;28;20049;-72
2023/07/18 03:59:25;;;;;;;18.85;5.45;;;14.90;99.90;;;;;;5016418;28;20136;-72
2023/07/18 04:01:54;;;;;;;18.80;5.90;;;14.90;99.90;;;;;;5032756;28;20541;-72
2023/07/18 04:04:20;;;;;;;15.20;5.90;;;14.90;99.90;;;;;;5015715;28;20124;-72
2023/07/18 04:06:46;;;;;;;18.95;6.38;;;14.90;99.90;;;;;;5016479;28;20133;-71
2023/07/18 04:09:11;;;;;;;15.60;6.38;;;15.00;99.90;;;;;;5032205;28;20132;-72
2023/07/18 04:11:39;;;;;;;17.77;6.82;;;15.00;99.90;;;;;;5032718;28;20049;-71
2023/07/18 04:14:05;;;;;;;20.05;6.00;;;15.00;99.90;;;;;;5015666;28;20095;-75
2023/07/18 04:16:31;;;;;;;15.77;5.95;;;15.00;99.90;;;;;;5016089;28;20143;-72
2023/07/18 04:18:57;;;;;;;15.63;6.13;;;15.00;99.90;;;;;;5027006;28;20038;-71
2023/07/18 04:21:22;;;;;;;9.63;5.53;;;15.00;99.90;;;;;;5042732;28;20119;-72
2023/07/18 04:23:48;;;;;;;18.23;6.07;;;15.00;99.90;;;;;;5019483;28;20483;-71
2023/07/18 04:26:14;;;;;;;15.00;5.93;;;15.00;99.90;;;;;;5032252;28;20057;-71
2023/07/18 04:28:40;;;;;;;15.80;5.93;;;15.00;99.90;;;;;;5016262;28;20053;-71
2023/07/18 04:31:06;;;;;;;12.23;5.43;;;15.00;99.90;;;;;;5032104;28;20502;-73
2023/07/18 04:33:39;;;;;;;11.82;6.03;;;15.10;99.90;;;;;;5032024;28;20140;-72
2023/07/18 04:36:06;;;;;;;17.77;5.65;;;15.10;99.90;;;;;;5015810;28;20042;-74
2023/07/18 04:38:32;;;;;;;21.30;6.40;;;15.10;99.90;;;;;;5031613;28;20124;-72
2023/07/18 04:40:58;;;;;;;14.43;5.85;;;15.10;99.90;;;;;;5032373;28;20052;-71
2023/07/18 04:43:24;;;;;;;14.40;5.35;;;15.20;99.90;;;;;;5031957;28;20513;-72
2023/07/18 04:45:50;;;;;;;18.23;6.93;;;15.30;99.90;;;;;;5032235;28;20052;-71
2023/07/18 04:48:18;;;;;;;15.20;6.03;;;15.30;99.90;;;;;;5015327;28;20454;-72
2023/07/18 04:50:52;;;;;;;14.38;5.40;;;15.40;99.90;;;;;;5032173;28;20128;-73
2023/07/18 04:53:18;;;;;;;15.70;5.95;;;15.50;99.90;;;;;;5031744;28;20045;-71
2023/07/18 04:55:45;;;;;;;12.35;5.90;;;15.60;99.90;;;;;;5031656;28;20072;-71
2023/07/18 04:58:11;;;;;;;12.75;5.38;;;15.70;99.90;;;;;;5015187;28;20041;-76
2023/07/18 05:00:36;;;;;;;17.70;6.10;;;15.80;99.90;;;;;;5000932;28;20590;-71
2023/07/18 05:03:03;;;;;;;17.98;5.60;;;15.80;99.90;;;;;;5015705;28;20502;-72
2023/07/18 05:05:29;;;;;;;15.85;5.85;;;15.80;99.90;;;;;;5031290;28;20057;-71
2023/07/18 05:07:56;;;;;;;14.00;4.88;;;15.90;99.90;;;;;;5015764;28;20057;-72
2023/07/18 05:10:22;;;;;;;13.45;5.38;;;16.00;99.90;;;;;;5030279;28;20506;-72
2023/07/18 05:12:50;;;;;;;15.50;5.85;;;16.10;99.90;;;;;;5031353;28;20049;-72
2023/07/18 05:15:16;;;;;;;15.23;5.40;;;16.10;99.90;;;;;;5031386;28;20495;-73
2023/07/18 05:17:41;;;;;;;11.40;4.95;;;16.20;99.90;;;;;;5014965;28;20053;-71
2023/07/18 05:20:10;;;;;;;17.80;5.35;;;16.20;99.90;;;;;;5015750;28;20052;-72
2023/07/18 05:22:38;;;;;;;10.05;4.40;;;16.50;99.90;;;;;;5031204;28;20450;-72
2023/07/18 05:25:09;;;;;;;12.75;4.40;;;16.70;99.90;;;;;;5031574;28;20055;-73
2023/07/18 05:27:35;;;;;;;16.90;5.20;;;16.70;99.90;;;;;;5015190;28;20124;-72
2023/07/18 05:30:04;;;;;;;13.52;4.68;;;16.70;99.90;;;;;;5015059;28;20091;-72
2023/07/18 05:32:30;;;;;;;17.30;5.38;;;16.70;99.90;;;;;;5031497;28;20088;-71
2023/07/18 05:34:58;;;;;;;17.17;5.10;;;16.80;99.90;;;;;;5031622;28;20400;-72
2023/07/18 05:37:25;;;;;;;15.85;5.03;;;16.90;99.90;;;;;;5030986;28;20041;-72
2023/07/18 05:39:52;;;;;;;15.50;5.53;;;16.90;99.90;;;;;;5015028;28;20045;-72
2023/07/18 05:42:17;;;;;;;13.48;5.22;;;16.90;99.90;;;;;;5014954;28;20060;-75
2023/07/18 05:44:44;;;;;;;19.13;5.38;;;16.80;99.90;;;;;;5031606;28;20041;-72
2023/07/18 05:47:11;;;;;;;13.82;4.88;;;16.80;99.90;;;;;;5015367;28;20046;-72
2023/07/18 05:49:38;;;;;;;17.88;5.75;;;16.80;99.90;;;;;;5031009;28;20132;-73
2023/07/18 05:52:04;;;;;;;14.50;5.15;;;16.70;99.90;;;;;;5015217;28;20046;-73
2023/07/18 05:54:30;;;;;;;11.70;4.78;;;16.70;99.90;;;;;;5014794;28;20149;-73
2023/07/18 05:57:00;;;;;;;15.07;4.95;;;16.60;99.90;;;;;;5031336;28;20379;-73
2023/07/18 05:59:27;;;;;;;17.08;5.60;;;16.60;99.90;;;;;;5031165;28;20120;-73
2023/07/18 06:01:53;;;;;;;13.75;5.30;;;16.60;99.90;;;;;;5015166;28;20135;-72
2023/07/18 06:04:19;;;;;;;14.95;5.00;;;16.70;99.90;;;;;;5030971;28;20131;-74
2023/07/18 06:06:45;;;;;;;15.77;5.07;;;16.70;99.90;;;;;;5014986;28;20081;-72
2023/07/18 06:09:11;;;;;;;18.92;5.55;;;16.70;99.90;;;;;;5018130;28;20045;-73
2023/07/18 06:11:37;;;;;;;16.08;5.70;;;16.70;99.90;;;;;;5002219;28;20049;-73
2023/07/18 06:14:05;;;;;;;15.60;5.15;;;16.80;99.90;;;;;;5034528;28;20103;-74
2023/07/18 06:16:31;;;;;;;18.77;6.32;;;16.80;99.90;;;;;;5035592;28;20132;-73
2023/07/18 06:18:57;;;;;;;16.50;5.38;;;16.80;99.90;;;;;;5035013;28;20052;-73
2023/07/18 06:21:26;;;;;;;12.23;4.97;;;16.80;99.90;;;;;;5034601;28;20064;-76
2023/07/18 06:23:55;;;;;;;15.23;5.93;;;16.80;99.90;;;;;;5018153;28;20407;-73
2023/07/18 06:26:22;;;;;;;14.80;5.35;;;16.90;99.90;;;;;;5034825;28;20046;-73
2023/07/18 06:28:48;;;;;;;10.77;5.22;;;16.90;99.90;;;;;;5033920;28;20084;-73
2023/07/18 06:31:14;;;;;;;13.52;5.00;;;16.90;99.90;;;;;;5034603;28;20103;-73
2023/07/18 06:33:40;;;;;;;18.20;6.03;;;17.10;99.90;;;;;;5017627;28;20045;-74
2023/07/18 06:36:06;;;;;;;17.33;5.72;;;17.80;99.90;;;;;;5018659;28;20100;-74
2023/07/18 06:38:32;;;;;;;16.52;5.85;;;18.70;99.90;;;;;;5037580;28;20080;-73
2023/07/18 06:40:58;;;;;;;15.98;5.82;;;19.80;99.90;;;;;;5028033;28;20049;-73
2023/07/18 06:43:24;;;;;;;16.88;5.43;;;20.70;99.90;;;;;;5023029;28;20053;-73
2023/07/18 06:45:50;;;;;;;14.00;5.30;;;21.60;99.90;;;;;;5018604;28;20087;-74
2023/07/18 06:48:17;;;;;;;14.05;4.65;;;22.50;99.90;;;;;;5018030;28;20131;-73
2023/07/18 06:50:47;;;;;;;14.52;4.97;;;22.60;99.90;;;;;;5034667;28;20395;-73
2023/07/18 06:53:19;;;;;;;15.65;5.03;;;23.10;99.90;;;;;;5034201;28;20502;-75
2023/07/18 06:55:50;;;;;;;16.75;4.38;;;23.80;99.90;;;;;;5033773;28;20391;-74
2023/07/18 06:58:17;;;;;;;11.63;4.13;;;24.40;99.90;;;;;;5034326;28;20045;-74
2023/07/18 07:00:44;;;;;;;12.05;4.50;;;25.10;99.90;;;;;;5033687;28;20136;-74
2023/07/18 07:03:10;;;;;;;12.68;4.20;;;25.70;99.90;;;;;;5034268;28;20410;-75
2023/07/18 07:05:41;;;;;;;15.45;4.95;;;26.00;99.90;;;;;;5033929;28;20133;-75
2023/07/18 07:08:12;;;;;;;21.00;5.25;;;25.50;99.90;;;;;;5033979;28;20057;-74
2023/07/18 07:10:42;;;;;;;16.02;4.70;;;25.00;99.90;;;;;;5033771;28;20049;-75
2023/07/18 07:13:09;;;;;;;14.00;4.63;;;24.80;99.90;;;;;;5034254;28;20132;-74
2023/07/18 07:15:35;;;;;;;14.57;4.82;;;24.60;99.90;;;;;;5033511;28;20122;-76
2023/07/18 07:18:03;;;;;;;16.77;4.97;;;25.00;99.90;;;;;;5017574;28;20045;-78
2023/07/18 07:20:30;;;;;;;14.73;4.45;;;25.60;99.90;;;;;;5000307;28;20380;-68
2023/07/18 07:22:57;;;;;;;13.88;4.57;;;26.40;99.90;;;;;;5034045;28;20041;-67
2023/07/18 07:25:28;;;;;;;12.73;4.07;;;26.80;99.80;;;;;;5033374;28;20045;-73
2023/07/18 07:27:53;;;;;;;10.85;4.20;;;27.30;99.10;;;;;;5033298;28;20041;-74
2023/07/18 07:30:20;;;;;;;13.65;4.30;;;27.50;98.70;;;;;;5033720;28;20061;-74
2023/07/18 07:32:48;;;;;;;10.35;3.90;;;27.40;98.50;;;;;;5016594;28;20056;-74
2023/07/18 07:35:19;;;;;;;12.00;4.10;;;27.90;98.20;;;;;;5034739;28;20042;-74
2023/07/18 07:37:50;;;;;;;13.93;4.00;;;27.90;97.70;;;;;;5032908;28;20052;-73
2023/07/18 07:40:16;;;;;;;15.60;4.53;;;28.10;97.40;;;;;;5033404;28;20541;-74
2023/07/18 07:42:44;;;;;;;11.27;4.03;;;28.30;96.80;;;;;;5034085;28;20037;-74
2023/07/18 07:45:11;;;;;;;12.15;4.03;;;28.20;96.80;;;;;;5034524;28;20107;-72
2023/07/18 07:47:37;;;;;;;12.70;4.22;;;27.70;97.40;;;;;;5034021;28;20051;-74
2023/07/18 07:50:04;;;;;;;15.35;4.43;;;27.10;97.60;;;;;;5016427;28;20124;-71
2023/07/18 07:52:30;;;;;;;14.60;4.43;;;26.80;98.20;;;;;;5032747;28;20060;-71
2023/07/18 07:54:57;;;;;;;13.32;4.50;;;26.30;98.20;;;;;;5032431;28;20037;-70
2023/07/18 07:57:23;;;;;;;14.43;4.07;;;25.90;98.30;;;;;;5033803;28;20041;-72
2023/07/18 07:59:50;;;;;;;12.68;3.95;;;25.80;99.00;;;;;;5049066;28;20048;-72
2023/07/18 08:02:19;;;;;;;11.13;4.22;;;25.90;99.60;;;;;;5032885;28;20171;-72
2023/07/18 08:04:46;;;;;;;14.95;4.53;;;25.80;98.90;;;;;;5032357;28;20045;-70
2023/07/18 08:07:13;;;;;;;14.13;4.30;;;25.60;99.00;;;;;;5032862;28;20060;-70
2023/07/18 08:09:39;;;;;;;11.07;4.20;;;25.40;99.20;;;;;;5033649;28;20053;-72
2023/07/18 08:12:06;;;;;;;11.10;4.45;;;25.00;99.50;;;;;;5033475;28;20057;-72
2023/07/18 08:14:33;;;;;;;10.30;3.45;;;25.20;99.90;;;;;;5032776;28;20442;-72
2023/07/18 08:16:59;;;;;;;12.35;3.78;;;25.20;99.20;;;;;;5033023;28;20123;-71
2023/07/18 08:19:26;;;;;;;11.93;3.40;;;25.20;99.20;;;;;;5033590;28;20049;-73
2023/07/18 08:21:53;;;;;;;8.77;2.95;;;25.10;99.20;;;;;;5033284;28;20188;-72
2023/07/18 08:24:19;;;;;;;10.05;2.75;;;25.40;98.30;;;;;;5032376;28;20099;-72
2023/07/18 08:26:45;;;;;;;10.55;3.28;;;25.50;97.90;;;;;;5032988;28;20048;-72
2023/07/18 08:29:11;;;;;;;10.15;2.90;;;25.60;98.00;;;;;;5032268;28;20557;-72
2023/07/18 08:31:37;;;;;;;8.43;2.60;;;25.90;97.90;;;;;;5031913;28;20128;-73
2023/07/18 08:34:03;;;;;;;6.25;2.35;;;26.50;97.50;;;;;;5033228;28;20041;-76
2023/07/18 08:36:30;;;;;;;8.07;2.70;;;27.30;96.30;;;;;;5015986;28;20107;-73
2023/07/18 08:38:55;;;;;;;5.53;2.28;;;28.00;95.60;;;;;;5033372;28;20052;-75
2023/07/18 08:41:21;;;;;;;6.40;2.40;;;28.60;94.70;;;;;;5029941;28;20050;-74
2023/07/18 08:43:48;;;;;;;10.40;2.70;;;29.10;93.70;;;;;;5032353;28;20099;-74
2023/07/18 08:46:15;;;;;;;8.98;2.50;;;29.40;93.60;;;;;;5032054;28;20055;-75
2023/07/18 08:48:45;;;;;;;6.38;2.42;;;29.50;93.60;;;;;;5032366;28;20049;-75
2023/07/18 08:51:11;;;;;;;6.07;2.83;;;29.40;93.00;;;;;;5031912;28;20041;-75
2023/07/18 08:53:41;;;;;;;8.75;2.40;;;28.90;93.60;;;;;;5032214;28;20041;-75
2023/07/18 08:56:10;;;;;;;4.70;1.80;;;28.50;93.20;;;;;;5048413;28;20673;-75
2023/07/18 08:58:37;;;;;;;7.28;2.00;;;28.40;93.10;;;;;;5049286;28;20521;-73
2023/07/18 09:01:09;;;;;;;6.90;2.33;;;28.60;92.70;;;;;;5035510;28;20037;-75
2023/07/18 09:03:35;;;;;;;6.07;2.25;;;28.60;91.80;;;;;;5038815;28;20058;-72
2023/07/18 09:06:15;;;;;;;7.72;2.45;;;28.60;92.60;;;;;;5038630;28;20096;-72
2023/07/18 09:08:42;;;;;;;6.10;2.00;;;28.30;92.30;;;;;;5031835;28;20053;-75
2023/07/18 09:11:08;;;;;;;9.27;2.05;;;28.20;92.80;;;;;;5015703;28;20045;-74
2023/07/18 09:13:38;;;;;;;5.97;2.00;;;28.10;92.90;;;;;;5032018;28;20072;-75
2023/07/18 09:16:21;;;;;;;8.45;2.42;;;28.40;92.30;;;;;;5032483;28;20050;-75
2023/07/18 09:18:54;;;;;;;4.75;1.95;;;28.80;92.30;;;;;;5031613;28;20135;-76
2023/07/18 09:21:22;;;;;;;10.73;2.40;;;29.00;91.90;;;;;;5047718;28;20130;-76
2023/07/18 09:23:49;;;;;;;7.72;2.25;;;29.30;92.30;;;;;;5031032;28;20486;-74
2023/07/18 09:26:20;;;;;;;7.45;1.98;;;29.70;91.40;;;;;;5032378;28;20041;-74
2023/07/18 09:28:46;;;;;;;8.27;2.17;;;29.90;90.90;;;;;;5031638;28;20045;-73
2023/07/18 09:31:24;;;;;;;7.68;2.33;;;29.70;91.10;;;;;;5031415;28;20406;-74
2023/07/18 09:33:52;;;;;;;6.88;2.45;;;29.50;91.00;;;;;;5032173;28;20049;-73
2023/07/18 09:36:25;;;;;;;3.65;2.08;;;29.10;91.30;;;;;;5031283;28;20491;-78
2023/07/18 09:38:51;;;;;;;10.55;2.75;;;29.10;91.50;;;;;;5032417;28;20055;-77
2023/07/18 09:41:19;;;;;;;5.10;1.88;;;29.10;91.60;;;;;;5031430;28;20045;-72
2023/07/18 09:43:45;;;;;;;7.32;2.40;;;29.40;91.50;;;;;;5035458;28;20128;-74
2023/07/18 09:46:13;;;;;;;7.40;2.17;;;29.60;91.30;;;;;;5035668;28;20049;-72
2023/07/18 09:48:40;;;;;;;6.50;2.10;;;29.80;91.40;;;;;;5035481;28;20049;-74
2023/07/18 09:51:20;;;;;;;7.93;2.10;;;30.00;90.80;;;;;;5035935;28;20119;-76
2023/07/18 09:53:47;;;;;;;7.30;2.03;;;30.40;90.30;;;;;;5035599;28;20095;-72
2023/07/18 09:56:17;;;;;;;6.50;1.90;;;30.60;90.20;;;;;;5036089;28;20049;-73
2023/07/18 09:58:44;;;;;;;5.75;1.83;;;30.60;90.10;;;;;;5036251;28;20132;-74
2023/07/18 10:01:19;;;;;;;6.78;1.95;;;30.10;90.10;;;;;;5035969;28;20049;-73
2023/07/18 10:03:47;;;;;;;5.45;1.98;;;29.70;90.60;;;;;;5035529;28;20103;-73
2023/07/18 10:06:15;;;;;;;5.57;1.70;;;29.20;90.90;;;;;;5035764;28;20041;-73
2023/07/18 10:08:43;;;;;;;6.40;2.30;;;28.90;91.00;;;;;;5035119;28;20096;-72
2023/07/18 10:11:09;;;;;;;6.20;2.05;;;28.40;91.00;;;;;;5035804;28;20403;-74
2023/07/18 10:14:05;;;;;;;7.30;2.17;;;28.20;91.40;;;;;;5034907;28;20061;-74
2023/07/18 10:16:34;;;;;;;5.35;1.77;;;27.80;91.80;;;;;;5038421;28;20111;-74
2023/07/18 10:19:16;;;;;;;7.78;2.20;;;27.30;92.20;;;;;;5034064;28;20099;-74
2023/07/18 10:21:45;;;;;;;5.80;2.05;;;26.90;92.70;;;;;;5036649;28;20041;-74
2023/07/18 10:24:20;;;;;;;7.53;2.50;;;26.50;92.90;;;;;;5037809;28;20053;-75
2023/07/18 10:27:00;;;;;;;10.27;2.05;;;26.40;93.00;;;;;;5037443;28;20103;-74
2023/07/18 10:29:31;;;;;;;6.38;1.80;;;26.30;93.30;;;;;;5034542;28;20450;-75
2023/07/18 10:32:00;;;;;;;7.63;2.53;;;26.40;93.60;;;;;;5035852;28;20049;-75
2023/07/18 10:34:26;;;;;;;5.80;2.20;;;26.40;93.30;;;;;;5034745;28;20120;-75
2023/07/18 10:37:00;;;;;;;6.53;2.08;;;26.30;93.60;;;;;;5034773;28;20132;-77
2023/07/18 10:39:39;;;;;;;8.27;2.42;;;26.30;93.50;;;;;;5034503;28;20057;-76
2023/07/18 10:42:28;;;;;;;7.72;2.35;;;26.10;93.40;;;;;;5035537;28;20046;-76
2023/07/18 10:45:05;;;;;;;7.38;2.45;;;26.00;94.00;;;;;;5034885;28;20080;-77
2023/07/18 10:47:31;;;;;;;10.60;2.75;;;26.00;94.20;;;;;;5035785;28;20103;-77
2023/07/18 10:49:57;;;;;;;7.15;2.42;;;25.70;94.40;;;;;;5035708;28;20080;-78
2023/07/18 10:52:23;;;;;;;6.75;2.13;;;25.60;94.80;;;;;;5033837;28;20045;-78
2023/07/18 10:54:54;;;;;;;9.93;2.42;;;25.60;95.00;;;;;;5033368;28;20180;-77
2023/07/18 10:57:27;;;;;;;5.40;2.10;;;25.50;95.10;;;;;;5050982;28;20088;-76
2023/07/18 11:00:09;;;;;;;11.25;2.50;;;25.50;95.10;;;;;;5035091;28;20076;-77
2023/07/18 11:02:37;;;;;;;7.85;2.33;;;25.50;95.00;;;;;;5018193;28;20041;-75
2023/07/18 11:05:11;;;;;;;7.07;2.30;;;25.60;95.10;;;;;;5050981;28;20052;-72
2023/07/18 11:07:46;;;;;;;;;;;25.60;95.00;;;;;;5034715;28;20049;-73
2023/07/18 11:10:13;;;;;;;7.00;2.40;;;25.60;94.90;;;;;;5034064;28;20012;-74
2023/07/18 11:12:40;;;;;;;6.07;1.98;;;25.90;95.10;;;;;;5035237;28;20057;-75
2023/07/18 11:15:08;;;;;;;6.50;2.30;;;26.00;94.80;;;;;;5034981;28;20057;-73
2023/07/18 11:17:34;;;;;;;4.97;2.22;;;26.10;94.80;;;;;;5035505;28;20053;-74
2023/07/18 11:20:01;;;;;;;9.18;2.95;;;26.20;94.40;;;;;;5034455;28;20132;-74
2023/07/18 11:22:28;;;;;;;11.23;2.80;;;26.30;94.50;;;;;;5036646;28;20046;-74
2023/07/18 11:24:58;;;;;;;8.45;2.45;;;26.30;94.50;;;;;;5050821;28;20045;-75
2023/07/18 11:27:25;;;;;;;12.27;2.42;;;26.40;94.50;;;;;;5043638;28;20053;-73
2023/07/18 11:30:09;;;;;;;6.60;2.00;;;26.30;94.60;;;;;;5034998;28;20052;-73
2023/07/18 11:32:40;;;;;;;10.95;2.70;;;26.20;94.80;;;;;;5050706;28;20053;-74
2023/07/18 11:35:10;;;;;;;10.85;2.63;;;26.00;95.20;;;;;;5050742;28;20056;-73
2023/07/18 11:37:41;;;;;;;6.68;2.30;;;25.90;94.80;;;;;;5033911;28;20511;-73
2023/07/18 11:40:17;;;;;;;5.70;2.03;;;25.90;94.70;;;;;;5035186;28;20052;-77
2023/07/18 11:42:50;;;;;;;7.13;1.90;;;25.90;95.30;;;;;;5034653;28;20045;-73
2023/07/18 11:45:17;;;;;;;;;;;26.10;93.90;;;;;;5033910;28;20049;-73
2023/07/18 11:47:51;;;;;;;5.75;2.05;;;26.30;93.20;;;;;;5034392;28;20016;-74
2023/07/18 11:50:17;;;;;;;;;;;26.40;92.90;;;;;;5034343;28;20491;-73
2023/07/18 11:52:51;;;;;;;6.75;2.13;;;26.40;92.90;;;;;;5034457;28;20013;-73
2023/07/18 11:55:18;;;;;;;9.27;2.50;;;26.60;93.20;;;;;;5033985;28;20049;-74
2023/07/18 11:57:45;;;;;;;8.73;2.08;;;26.70;93.10;;;;;;5034528;28;20387;-74
2023/07/18 12:00:17;;;;;;;6.05;1.83;;;26.70;93.60;;;;;;5034220;28;20076;-74
2023/07/18 12:02:44;;;;;;;4.60;2.03;;;26.80;93.80;;;;;;5034288;28;20080;-74
2023/07/18 12:05:10;;;;;;;4.10;1.95;;;26.60;94.50;;;;;;5032802;28;20084;-73
2023/07/18 12:07:41;;;;;;;5.40;2.10;;;26.50;94.90;;;;;;5032649;28;20046;-72
2023/07/18 12:10:10;;;;;;;6.32;2.13;;;26.00;94.60;;;;;;5034126;28;20573;-72
2023/07/18 12:12:39;;;;;;;5.15;2.28;;;25.70;95.00;;;;;;5033387;28;20061;-72
2023/07/18 12:15:09;;;;;;;8.98;2.50;;;25.40;95.10;;;;;;5049253;28;20050;-72
2023/07/18 12:17:37;;;;;;;5.63;2.20;;;25.20;95.30;;;;;;5032293;28;20037;-72
2023/07/18 12:20:03;;;;;;;6.28;2.58;;;25.10;95.70;;;;;;5032521;28;20053;-73
2023/07/18 12:22:28;;;;;;;5.38;2.10;;;25.00;96.00;;;;;;5033321;28;20549;-72
2023/07/18 12:24:54;;;;;;;6.07;2.28;;;24.90;96.30;;;;;;5032092;28;20075;-71
2023/07/18 12:27:20;;;;;;;7.15;2.92;;;24.60;96.50;;;;;;5033057;28;20046;-72
2023/07/18 12:29:46;;;;;;;6.20;2.60;;;24.40;97.20;;;;;;5032136;28;20049;-71
2023/07/18 12:32:11;;;;;;;5.00;2.35;;;24.10;97.30;;;;;;5033598;28;20479;-72
2023/07/18 12:34:39;;;;;;;8.07;2.67;;;23.80;97.90;;;;;;5032164;28;20063;-72
2023/07/18 12:37:05;;;;;;;6.47;2.25;;;23.70;98.10;;;;;;5032849;28;20045;-73
2023/07/18 12:39:31;;;;;;;5.53;1.95;;;23.70;98.40;;;;;;5033032;28;20132;-73
2023/07/18 12:41:57;;;;;;;5.28;2.25;;;23.70;98.30;;;;;;5033265;28;20108;-72
2023/07/18 12:44:38;;;;;;;5.28;2.20;;;23.80;98.40;;;;;;5031636;28;20060;-72